sensor_id;sensor_type;location;lat;lon;timestamp;P1;durP1;ratioP1;P2;durP2;ratioP2
4686;SDS011;2357;47.316;-1.348;2023-05-19T00:00:01;2.30;;;1.50;;
4686;SDS011;2357;47.316;-1.348;2023-05-19T00:02:28;5.43;;;1.53;;
4686;SDS011;2357;47.316;-1.348;2023-05-19T00:04:58;5.90;;;1.93;;
4686;SDS011;2357;47.316;-1.348;2023-05-19T00:07:29;3.30;;;2.07;;
4686;SDS011;2357;47.316;-1.348;2023-05-19T00:09:56;2.63;;;2.00;;
4686;SDS011;2357;47.316;-1.348;2023-05-19T00:12:22;15.17;;;2.00;;
4686;SDS011;2357;47.316;-1.348;2023-05-19T00:14:48;4.97;;;1.87;;
4686;SDS011;2357;47.316;-1.348;2023-05-19T00:17:14;6.20;;;1.80;;
4686;SDS011;2357;47.316;-1.348;2023-05-19T00:19:41;3.00;;;2.30;;
4686;SDS011;2357;47.316;-1.348;2023-05-19T00:22:09;6.33;;;3.10;;
4686;SDS011;2357;47.316;-1.348;2023-05-19T00:24:34;9.27;;;2.00;;
4686;SDS011;2357;47.316;-1.348;2023-05-19T00:27:00;7.80;;;2.53;;
4686;SDS011;2357;47.316;-1.348;2023-05-19T00:29:26;5.47;;;2.30;;
4686;SDS011;2357;47.316;-1.348;2023-05-19T00:31:52;6.07;;;1.90;;
4686;SDS011;2357;47.316;-1.348;2023-05-19T00:34:18;3.70;;;2.00;;
4686;SDS011;2357;47.316;-1.348;2023-05-19T00:36:43;6.43;;;1.93;;
4686;SDS011;2357;47.316;-1.348;2023-05-19T00:39:09;5.13;;;2.70;;
4686;SDS011;2357;47.316;-1.348;2023-05-19T00:41:35;7.30;;;2.00;;
4686;SDS011;2357;47.316;-1.348;2023-05-19T00:44:00;7.53;;;1.90;;
4686;SDS011;2357;47.316;-1.348;2023-05-19T00:46:26;7.47;;;1.70;;
4686;SDS011;2357;47.316;-1.348;2023-05-19T00:48:52;4.93;;;2.00;;
4686;SDS011;2357;47.316;-1.348;2023-05-19T00:51:17;5.33;;;2.30;;
4686;SDS011;2357;47.316;-1.348;2023-05-19T00:53:43;7.83;;;2.23;;
4686;SDS011;2357;47.316;-1.348;2023-05-19T00:56:13;3.10;;;1.93;;
4686;SDS011;2357;47.316;-1.348;2023-05-19T00:58:40;4.80;;;2.27;;
4686;SDS011;2357;47.316;-1.348;2023-05-19T01:01:06;10.33;;;2.53;;
4686;SDS011;2357;47.316;-1.348;2023-05-19T01:03:32;3.90;;;1.87;;
4686;SDS011;2357;47.316;-1.348;2023-05-19T01:06:00;5.97;;;2.37;;
4686;SDS011;2357;47.316;-1.348;2023-05-19T01:08:30;3.90;;;2.20;;
4686;SDS011;2357;47.316;-1.348;2023-05-19T01:10:56;6.97;;;2.90;;
4686;SDS011;2357;47.316;-1.348;2023-05-19T01:13:22;3.93;;;2.30;;
4686;SDS011;2357;47.316;-1.348;2023-05-19T01:18:42;6.20;;;2.17;;
4686;SDS011;2357;47.316;-1.348;2023-05-19T01:29:47;7.00;;;2.00;;
4686;SDS011;2357;47.316;-1.348;2023-05-19T01:32:36;4.73;;;2.13;;
4686;SDS011;2357;47.316;-1.348;2023-05-19T01:35:05;7.20;;;1.97;;
4686;SDS011;2357;47.316;-1.348;2023-05-19T01:37:33;6.93;;;2.30;;
4686;SDS011;2357;47.316;-1.348;2023-05-19T01:40:00;7.93;;;3.97;;
4686;SDS011;2357;47.316;-1.348;2023-05-19T01:42:26;2.00;;;1.90;;
4686;SDS011;2357;47.316;-1.348;2023-05-19T01:44:53;6.33;;;2.30;;
4686;SDS011;2357;47.316;-1.348;2023-05-19T01:47:20;6.83;;;2.17;;
4686;SDS011;2357;47.316;-1.348;2023-05-19T01:49:46;6.37;;;2.10;;
4686;SDS011;2357;47.316;-1.348;2023-05-19T01:52:12;6.13;;;2.70;;
4686;SDS011;2357;47.316;-1.348;2023-05-19T01:54:37;5.20;;;2.03;;
4686;SDS011;2357;47.316;-1.348;2023-05-19T02:03:12;7.23;;;2.23;;
4686;SDS011;2357;47.316;-1.348;2023-05-19T02:05:54;5.03;;;2.63;;
4686;SDS011;2357;47.316;-1.348;2023-05-19T02:14:07;5.77;;;2.40;;
4686;SDS011;2357;47.316;-1.348;2023-05-19T02:16:40;14.83;;;3.60;;
4686;SDS011;2357;47.316;-1.348;2023-05-19T02:19:19;4.87;;;2.03;;
4686;SDS011;2357;47.316;-1.348;2023-05-19T02:21:49;2.97;;;2.67;;
4686;SDS011;2357;47.316;-1.348;2023-05-19T02:24:14;8.50;;;3.87;;
4686;SDS011;2357;47.316;-1.348;2023-05-19T02:26:40;3.60;;;2.03;;
4686;SDS011;2357;47.316;-1.348;2023-05-19T02:29:06;3.50;;;2.20;;
4686;SDS011;2357;47.316;-1.348;2023-05-19T02:31:31;8.83;;;2.60;;
4686;SDS011;2357;47.316;-1.348;2023-05-19T02:33:57;4.60;;;2.50;;
4686;SDS011;2357;47.316;-1.348;2023-05-19T02:36:23;8.53;;;3.50;;
4686;SDS011;2357;47.316;-1.348;2023-05-19T02:38:50;11.10;;;2.50;;
4686;SDS011;2357;47.316;-1.348;2023-05-19T02:41:16;10.87;;;3.00;;
4686;SDS011;2357;47.316;-1.348;2023-05-19T02:43:41;7.63;;;2.50;;
4686;SDS011;2357;47.316;-1.348;2023-05-19T02:46:07;4.53;;;2.73;;
4686;SDS011;2357;47.316;-1.348;2023-05-19T02:48:32;4.80;;;2.37;;
4686;SDS011;2357;47.316;-1.348;2023-05-19T02:50:58;9.07;;;2.87;;
4686;SDS011;2357;47.316;-1.348;2023-05-19T02:53:24;12.00;;;2.40;;
4686;SDS011;2357;47.316;-1.348;2023-05-19T02:55:50;3.63;;;2.30;;
4686;SDS011;2357;47.316;-1.348;2023-05-19T02:58:15;4.80;;;2.60;;
4686;SDS011;2357;47.316;-1.348;2023-05-19T03:00:42;4.20;;;2.40;;
4686;SDS011;2357;47.316;-1.348;2023-05-19T03:03:09;6.00;;;2.27;;
4686;SDS011;2357;47.316;-1.348;2023-05-19T03:05:34;6.93;;;3.57;;
4686;SDS011;2357;47.316;-1.348;2023-05-19T03:08:00;5.40;;;2.80;;
4686;SDS011;2357;47.316;-1.348;2023-05-19T03:10:26;5.60;;;2.00;;
4686;SDS011;2357;47.316;-1.348;2023-05-19T03:12:52;6.90;;;2.43;;
4686;SDS011;2357;47.316;-1.348;2023-05-19T03:15:17;2.80;;;2.20;;
4686;SDS011;2357;47.316;-1.348;2023-05-19T03:17:43;6.73;;;2.57;;
4686;SDS011;2357;47.316;-1.348;2023-05-19T03:20:09;5.20;;;2.60;;
4686;SDS011;2357;47.316;-1.348;2023-05-19T03:22:35;8.30;;;2.67;;
4686;SDS011;2357;47.316;-1.348;2023-05-19T03:25:01;7.87;;;2.70;;
4686;SDS011;2357;47.316;-1.348;2023-05-19T03:27:27;3.10;;;2.00;;
4686;SDS011;2357;47.316;-1.348;2023-05-19T03:29:53;26.30;;;3.13;;
4686;SDS011;2357;47.316;-1.348;2023-05-19T03:32:18;3.47;;;2.63;;
4686;SDS011;2357;47.316;-1.348;2023-05-19T03:34:44;13.40;;;3.07;;
4686;SDS011;2357;47.316;-1.348;2023-05-19T03:37:10;4.10;;;2.30;;
4686;SDS011;2357;47.316;-1.348;2023-05-19T03:39:36;8.80;;;2.87;;
4686;SDS011;2357;47.316;-1.348;2023-05-19T03:42:02;8.37;;;2.20;;
4686;SDS011;2357;47.316;-1.348;2023-05-19T03:44:28;4.07;;;1.97;;
4686;SDS011;2357;47.316;-1.348;2023-05-19T03:46:54;4.70;;;2.40;;
4686;SDS011;2357;47.316;-1.348;2023-05-19T03:49:20;8.50;;;2.60;;
4686;SDS011;2357;47.316;-1.348;2023-05-19T03:51:45;11.30;;;3.03;;
4686;SDS011;2357;47.316;-1.348;2023-05-19T03:54:11;3.37;;;2.03;;
4686;SDS011;2357;47.316;-1.348;2023-05-19T03:56:40;5.50;;;2.80;;
4686;SDS011;2357;47.316;-1.348;2023-05-19T03:59:07;6.70;;;2.40;;
4686;SDS011;2357;47.316;-1.348;2023-05-19T04:01:34;8.60;;;2.33;;
4686;SDS011;2357;47.316;-1.348;2023-05-19T04:04:00;4.23;;;1.90;;
4686;SDS011;2357;47.316;-1.348;2023-05-19T04:06:26;13.23;;;2.90;;
4686;SDS011;2357;47.316;-1.348;2023-05-19T04:08:52;4.50;;;2.93;;
4686;SDS011;2357;47.316;-1.348;2023-05-19T04:11:18;5.87;;;2.40;;
4686;SDS011;2357;47.316;-1.348;2023-05-19T04:13:44;7.23;;;2.90;;
4686;SDS011;2357;47.316;-1.348;2023-05-19T04:16:09;10.10;;;3.37;;
4686;SDS011;2357;47.316;-1.348;2023-05-19T04:18:35;5.80;;;2.40;;
4686;SDS011;2357;47.316;-1.348;2023-05-19T04:21:01;3.50;;;2.10;;
4686;SDS011;2357;47.316;-1.348;2023-05-19T04:23:26;7.30;;;3.10;;
4686;SDS011;2357;47.316;-1.348;2023-05-19T04:25:52;7.70;;;2.73;;
4686;SDS011;2357;47.316;-1.348;2023-05-19T04:28:18;8.30;;;2.30;;
4686;SDS011;2357;47.316;-1.348;2023-05-19T04:30:45;7.10;;;2.30;;
4686;SDS011;2357;47.316;-1.348;2023-05-19T04:33:11;13.00;;;3.70;;
4686;SDS011;2357;47.316;-1.348;2023-05-19T04:35:37;1.83;;;1.70;;
4686;SDS011;2357;47.316;-1.348;2023-05-19T04:38:03;5.13;;;2.53;;
4686;SDS011;2357;47.316;-1.348;2023-05-19T04:40:29;6.37;;;2.40;;
4686;SDS011;2357;47.316;-1.348;2023-05-19T04:42:55;3.83;;;2.30;;
4686;SDS011;2357;47.316;-1.348;2023-05-19T04:45:22;4.00;;;2.80;;
4686;SDS011;2357;47.316;-1.348;2023-05-19T04:47:49;3.83;;;2.20;;
4686;SDS011;2357;47.316;-1.348;2023-05-19T04:50:16;8.67;;;2.70;;
4686;SDS011;2357;47.316;-1.348;2023-05-19T04:52:42;3.13;;;2.83;;
4686;SDS011;2357;47.316;-1.348;2023-05-19T04:55:09;4.03;;;2.20;;
4686;SDS011;2357;47.316;-1.348;2023-05-19T04:57:35;8.03;;;2.50;;
4686;SDS011;2357;47.316;-1.348;2023-05-19T05:00:01;5.37;;;2.97;;
4686;SDS011;2357;47.316;-1.348;2023-05-19T05:02:31;3.53;;;2.13;;
4686;SDS011;2357;47.316;-1.348;2023-05-19T05:04:57;3.90;;;2.13;;
4686;SDS011;2357;47.316;-1.348;2023-05-19T05:07:23;7.53;;;2.60;;
4686;SDS011;2357;47.316;-1.348;2023-05-19T05:09:49;6.00;;;3.47;;
4686;SDS011;2357;47.316;-1.348;2023-05-19T05:12:15;5.80;;;3.03;;
4686;SDS011;2357;47.316;-1.348;2023-05-19T05:14:42;2.33;;;2.20;;
4686;SDS011;2357;47.316;-1.348;2023-05-19T05:17:09;5.17;;;2.40;;
4686;SDS011;2357;47.316;-1.348;2023-05-19T05:19:36;4.83;;;2.67;;
4686;SDS011;2357;47.316;-1.348;2023-05-19T05:22:02;4.20;;;2.37;;
4686;SDS011;2357;47.316;-1.348;2023-05-19T05:24:29;4.10;;;2.50;;
4686;SDS011;2357;47.316;-1.348;2023-05-19T05:26:55;6.33;;;2.97;;
4686;SDS011;2357;47.316;-1.348;2023-05-19T05:29:22;2.80;;;2.40;;
4686;SDS011;2357;47.316;-1.348;2023-05-19T05:31:48;5.80;;;2.20;;
4686;SDS011;2357;47.316;-1.348;2023-05-19T05:34:14;6.13;;;2.50;;
4686;SDS011;2357;47.316;-1.348;2023-05-19T05:36:40;6.93;;;2.70;;
4686;SDS011;2357;47.316;-1.348;2023-05-19T05:39:06;3.60;;;2.37;;
4686;SDS011;2357;47.316;-1.348;2023-05-19T05:41:32;4.70;;;2.20;;
4686;SDS011;2357;47.316;-1.348;2023-05-19T05:44:02;4.93;;;3.53;;
4686;SDS011;2357;47.316;-1.348;2023-05-19T05:46:28;3.20;;;2.40;;
4686;SDS011;2357;47.316;-1.348;2023-05-19T05:48:53;7.93;;;2.50;;
4686;SDS011;2357;47.316;-1.348;2023-05-19T05:51:20;4.00;;;2.20;;
4686;SDS011;2357;47.316;-1.348;2023-05-19T05:53:48;4.83;;;2.30;;
4686;SDS011;2357;47.316;-1.348;2023-05-19T05:56:16;6.07;;;2.90;;
4686;SDS011;2357;47.316;-1.348;2023-05-19T05:58:42;6.70;;;3.07;;
4686;SDS011;2357;47.316;-1.348;2023-05-19T06:01:08;8.90;;;2.67;;
4686;SDS011;2357;47.316;-1.348;2023-05-19T06:03:40;8.53;;;2.53;;
4686;SDS011;2357;47.316;-1.348;2023-05-19T06:06:08;4.57;;;2.50;;
4686;SDS011;2357;47.316;-1.348;2023-05-19T06:08:35;7.97;;;3.03;;
4686;SDS011;2357;47.316;-1.348;2023-05-19T06:11:01;6.93;;;2.20;;
4686;SDS011;2357;47.316;-1.348;2023-05-19T06:13:36;8.67;;;3.10;;
4686;SDS011;2357;47.316;-1.348;2023-05-19T06:16:03;5.90;;;3.30;;
4686;SDS011;2357;47.316;-1.348;2023-05-19T06:18:29;8.97;;;2.73;;
4686;SDS011;2357;47.316;-1.348;2023-05-19T06:20:55;2.50;;;2.30;;
4686;SDS011;2357;47.316;-1.348;2023-05-19T06:23:21;7.33;;;2.77;;
4686;SDS011;2357;47.316;-1.348;2023-05-19T06:25:47;2.70;;;2.10;;
4686;SDS011;2357;47.316;-1.348;2023-05-19T06:28:13;4.17;;;2.40;;
4686;SDS011;2357;47.316;-1.348;2023-05-19T06:30:38;6.00;;;2.80;;
4686;SDS011;2357;47.316;-1.348;2023-05-19T06:33:04;4.37;;;2.40;;
4686;SDS011;2357;47.316;-1.348;2023-05-19T06:35:30;6.03;;;2.93;;
4686;SDS011;2357;47.316;-1.348;2023-05-19T06:37:55;4.83;;;2.80;;
4686;SDS011;2357;47.316;-1.348;2023-05-19T06:40:21;4.73;;;2.60;;
4686;SDS011;2357;47.316;-1.348;2023-05-19T06:42:47;7.27;;;3.30;;
4686;SDS011;2357;47.316;-1.348;2023-05-19T06:45:13;7.03;;;3.20;;
4686;SDS011;2357;47.316;-1.348;2023-05-19T06:47:39;12.03;;;3.87;;
4686;SDS011;2357;47.316;-1.348;2023-05-19T06:50:06;14.93;;;3.30;;
4686;SDS011;2357;47.316;-1.348;2023-05-19T06:52:33;11.53;;;2.87;;
4686;SDS011;2357;47.316;-1.348;2023-05-19T06:54:59;7.03;;;2.90;;
4686;SDS011;2357;47.316;-1.348;2023-05-19T06:57:24;6.03;;;3.10;;
4686;SDS011;2357;47.316;-1.348;2023-05-19T06:59:50;5.50;;;3.80;;
4686;SDS011;2357;47.316;-1.348;2023-05-19T07:02:16;8.50;;;4.20;;
4686;SDS011;2357;47.316;-1.348;2023-05-19T07:04:41;4.87;;;2.87;;
4686;SDS011;2357;47.316;-1.348;2023-05-19T07:07:07;13.03;;;3.37;;
4686;SDS011;2357;47.316;-1.348;2023-05-19T07:09:33;8.00;;;3.27;;
4686;SDS011;2357;47.316;-1.348;2023-05-19T07:11:58;11.63;;;3.90;;
4686;SDS011;2357;47.316;-1.348;2023-05-19T07:14:25;5.43;;;3.47;;
4686;SDS011;2357;47.316;-1.348;2023-05-19T07:16:51;11.50;;;4.10;;
4686;SDS011;2357;47.316;-1.348;2023-05-19T07:19:16;7.17;;;2.90;;
4686;SDS011;2357;47.316;-1.348;2023-05-19T07:21:45;13.83;;;3.83;;
4686;SDS011;2357;47.316;-1.348;2023-05-19T07:24:11;7.90;;;2.83;;
4686;SDS011;2357;47.316;-1.348;2023-05-19T07:26:37;11.13;;;3.47;;
4686;SDS011;2357;47.316;-1.348;2023-05-19T07:29:02;10.73;;;4.83;;
4686;SDS011;2357;47.316;-1.348;2023-05-19T07:31:28;4.60;;;2.57;;
4686;SDS011;2357;47.316;-1.348;2023-05-19T07:33:55;7.90;;;3.03;;
4686;SDS011;2357;47.316;-1.348;2023-05-19T07:36:21;5.43;;;4.00;;
4686;SDS011;2357;47.316;-1.348;2023-05-19T07:38:46;6.60;;;3.03;;
4686;SDS011;2357;47.316;-1.348;2023-05-19T07:41:12;9.23;;;3.10;;
4686;SDS011;2357;47.316;-1.348;2023-05-19T07:43:38;8.57;;;3.50;;
4686;SDS011;2357;47.316;-1.348;2023-05-19T07:46:04;12.90;;;3.40;;
4686;SDS011;2357;47.316;-1.348;2023-05-19T07:48:29;11.87;;;3.50;;
4686;SDS011;2357;47.316;-1.348;2023-05-19T07:50:55;6.37;;;3.33;;
4686;SDS011;2357;47.316;-1.348;2023-05-19T07:53:21;8.47;;;3.10;;
4686;SDS011;2357;47.316;-1.348;2023-05-19T07:55:47;10.90;;;4.40;;
4686;SDS011;2357;47.316;-1.348;2023-05-19T07:58:13;11.03;;;3.83;;
4686;SDS011;2357;47.316;-1.348;2023-05-19T08:00:39;8.80;;;3.30;;
4686;SDS011;2357;47.316;-1.348;2023-05-19T08:03:07;16.63;;;3.13;;
4686;SDS011;2357;47.316;-1.348;2023-05-19T08:05:37;10.13;;;4.33;;
4686;SDS011;2357;47.316;-1.348;2023-05-19T08:08:02;5.73;;;2.90;;
4686;SDS011;2357;47.316;-1.348;2023-05-19T08:10:28;7.10;;;4.03;;
4686;SDS011;2357;47.316;-1.348;2023-05-19T08:12:54;15.87;;;2.83;;
4686;SDS011;2357;47.316;-1.348;2023-05-19T08:15:19;9.60;;;3.73;;
4686;SDS011;2357;47.316;-1.348;2023-05-19T08:17:45;7.70;;;3.57;;
4686;SDS011;2357;47.316;-1.348;2023-05-19T08:20:11;9.10;;;3.87;;
4686;SDS011;2357;47.316;-1.348;2023-05-19T08:22:37;13.43;;;2.90;;
4686;SDS011;2357;47.316;-1.348;2023-05-19T08:25:03;10.07;;;3.87;;
4686;SDS011;2357;47.316;-1.348;2023-05-19T08:27:29;6.40;;;3.10;;
4686;SDS011;2357;47.316;-1.348;2023-05-19T08:29:55;7.00;;;3.50;;
4686;SDS011;2357;47.316;-1.348;2023-05-19T08:32:21;13.77;;;3.80;;
4686;SDS011;2357;47.316;-1.348;2023-05-19T08:34:47;7.63;;;3.90;;
4686;SDS011;2357;47.316;-1.348;2023-05-19T08:37:13;17.00;;;4.83;;
4686;SDS011;2357;47.316;-1.348;2023-05-19T08:39:38;7.47;;;3.80;;
4686;SDS011;2357;47.316;-1.348;2023-05-19T08:42:04;7.97;;;3.50;;
4686;SDS011;2357;47.316;-1.348;2023-05-19T08:44:32;10.43;;;3.63;;
4686;SDS011;2357;47.316;-1.348;2023-05-19T08:47:01;6.80;;;3.20;;
4686;SDS011;2357;47.316;-1.348;2023-05-19T08:49:30;12.80;;;3.13;;
4686;SDS011;2357;47.316;-1.348;2023-05-19T08:57:33;4.77;;;3.33;;
4686;SDS011;2357;47.316;-1.348;2023-05-19T09:00:01;10.80;;;3.60;;
4686;SDS011;2357;47.316;-1.348;2023-05-19T09:02:29;10.70;;;3.37;;
4686;SDS011;2357;47.316;-1.348;2023-05-19T09:04:56;10.90;;;4.20;;
4686;SDS011;2357;47.316;-1.348;2023-05-19T09:07:22;9.97;;;4.43;;
4686;SDS011;2357;47.316;-1.348;2023-05-19T09:09:50;7.40;;;3.27;;
4686;SDS011;2357;47.316;-1.348;2023-05-19T09:12:15;6.47;;;3.50;;
4686;SDS011;2357;47.316;-1.348;2023-05-19T09:14:41;6.27;;;3.70;;
4686;SDS011;2357;47.316;-1.348;2023-05-19T09:17:07;9.13;;;4.13;;
4686;SDS011;2357;47.316;-1.348;2023-05-19T09:22:19;10.90;;;3.80;;
4686;SDS011;2357;47.316;-1.348;2023-05-19T09:24:45;15.27;;;4.00;;
4686;SDS011;2357;47.316;-1.348;2023-05-19T09:27:19;5.70;;;3.10;;
4686;SDS011;2357;47.316;-1.348;2023-05-19T09:29:47;9.70;;;4.00;;
4686;SDS011;2357;47.316;-1.348;2023-05-19T09:32:16;8.33;;;4.00;;
4686;SDS011;2357;47.316;-1.348;2023-05-19T09:34:49;13.73;;;3.43;;
4686;SDS011;2357;47.316;-1.348;2023-05-19T09:37:15;12.60;;;3.90;;
4686;SDS011;2357;47.316;-1.348;2023-05-19T09:39:40;6.83;;;3.37;;
4686;SDS011;2357;47.316;-1.348;2023-05-19T09:42:13;6.03;;;3.30;;
4686;SDS011;2357;47.316;-1.348;2023-05-19T09:44:38;5.03;;;2.60;;
4686;SDS011;2357;47.316;-1.348;2023-05-19T09:47:06;4.20;;;2.50;;
4686;SDS011;2357;47.316;-1.348;2023-05-19T09:49:33;12.60;;;3.53;;
4686;SDS011;2357;47.316;-1.348;2023-05-19T09:52:01;7.00;;;2.93;;
4686;SDS011;2357;47.316;-1.348;2023-05-19T09:54:30;8.83;;;3.50;;
4686;SDS011;2357;47.316;-1.348;2023-05-19T09:56:59;8.67;;;3.67;;
4686;SDS011;2357;47.316;-1.348;2023-05-19T09:59:26;7.53;;;3.40;;
4686;SDS011;2357;47.316;-1.348;2023-05-19T10:02:01;12.27;;;3.23;;
4686;SDS011;2357;47.316;-1.348;2023-05-19T10:04:28;4.00;;;2.17;;
4686;SDS011;2357;47.316;-1.348;2023-05-19T10:06:55;3.90;;;1.97;;
4686;SDS011;2357;47.316;-1.348;2023-05-19T10:09:26;7.13;;;2.50;;
4686;SDS011;2357;47.316;-1.348;2023-05-19T10:11:54;6.03;;;2.37;;
4686;SDS011;2357;47.316;-1.348;2023-05-19T10:14:21;4.67;;;1.93;;
4686;SDS011;2357;47.316;-1.348;2023-05-19T10:16:51;2.70;;;1.50;;
4686;SDS011;2357;47.316;-1.348;2023-05-19T10:19:21;2.73;;;1.87;;
4686;SDS011;2357;47.316;-1.348;2023-05-19T10:21:52;4.20;;;1.70;;
4686;SDS011;2357;47.316;-1.348;2023-05-19T10:24:18;2.70;;;1.50;;
4686;SDS011;2357;47.316;-1.348;2023-05-19T10:26:59;4.57;;;1.40;;
4686;SDS011;2357;47.316;-1.348;2023-05-19T10:29:33;9.13;;;1.70;;
4686;SDS011;2357;47.316;-1.348;2023-05-19T10:32:15;3.27;;;1.47;;
4686;SDS011;2357;47.316;-1.348;2023-05-19T10:40:17;2.43;;;1.30;;
4686;SDS011;2357;47.316;-1.348;2023-05-19T10:42:52;7.50;;;1.87;;
4686;SDS011;2357;47.316;-1.348;2023-05-19T10:45:26;3.77;;;1.90;;
4686;SDS011;2357;47.316;-1.348;2023-05-19T10:47:57;1.90;;;1.30;;
4686;SDS011;2357;47.316;-1.348;2023-05-19T10:50:23;1.83;;;1.23;;
4686;SDS011;2357;47.316;-1.348;2023-05-19T10:52:52;2.10;;;1.13;;
4686;SDS011;2357;47.316;-1.348;2023-05-19T10:55:43;3.73;;;1.30;;
4686;SDS011;2357;47.316;-1.348;2023-05-19T10:58:10;7.43;;;2.10;;
4686;SDS011;2357;47.316;-1.348;2023-05-19T11:00:35;8.67;;;1.60;;
4686;SDS011;2357;47.316;-1.348;2023-05-19T11:03:12;2.90;;;1.43;;
4686;SDS011;2357;47.316;-1.348;2023-05-19T11:05:47;6.63;;;2.00;;
4686;SDS011;2357;47.316;-1.348;2023-05-19T11:08:16;2.70;;;1.60;;
4686;SDS011;2357;47.316;-1.348;2023-05-19T11:11:11;1.57;;;1.40;;
4686;SDS011;2357;47.316;-1.348;2023-05-19T11:13:50;3.13;;;1.10;;
4686;SDS011;2357;47.316;-1.348;2023-05-19T11:16:32;5.37;;;1.23;;
4686;SDS011;2357;47.316;-1.348;2023-05-19T11:18:59;1.43;;;1.20;;
4686;SDS011;2357;47.316;-1.348;2023-05-19T11:26:59;5.70;;;1.70;;
4686;SDS011;2357;47.316;-1.348;2023-05-19T11:30:00;7.53;;;1.10;;
4686;SDS011;2357;47.316;-1.348;2023-05-19T11:32:30;1.57;;;1.47;;
4686;SDS011;2357;47.316;-1.348;2023-05-19T11:34:59;2.80;;;1.40;;
4686;SDS011;2357;47.316;-1.348;2023-05-19T11:37:25;1.17;;;1.03;;
4686;SDS011;2357;47.316;-1.348;2023-05-19T11:39:52;5.67;;;1.03;;
4686;SDS011;2357;47.316;-1.348;2023-05-19T11:42:18;2.30;;;1.60;;
4686;SDS011;2357;47.316;-1.348;2023-05-19T11:44:44;2.40;;;1.97;;
4686;SDS011;2357;47.316;-1.348;2023-05-19T11:47:10;1.87;;;1.33;;
4686;SDS011;2357;47.316;-1.348;2023-05-19T11:49:37;1.83;;;1.40;;
4686;SDS011;2357;47.316;-1.348;2023-05-19T11:52:02;3.10;;;1.20;;
4686;SDS011;2357;47.316;-1.348;2023-05-19T11:54:29;1.43;;;1.33;;
4686;SDS011;2357;47.316;-1.348;2023-05-19T11:56:58;3.30;;;1.50;;
4686;SDS011;2357;47.316;-1.348;2023-05-19T11:59:28;3.53;;;2.00;;
4686;SDS011;2357;47.316;-1.348;2023-05-19T12:02:02;3.20;;;1.50;;
4686;SDS011;2357;47.316;-1.348;2023-05-19T12:04:39;2.83;;;1.90;;
4686;SDS011;2357;47.316;-1.348;2023-05-19T12:07:05;3.63;;;1.63;;
4686;SDS011;2357;47.316;-1.348;2023-05-19T12:09:31;12.90;;;3.50;;
4686;SDS011;2357;47.316;-1.348;2023-05-19T12:11:56;2.13;;;1.67;;
4686;SDS011;2357;47.316;-1.348;2023-05-19T12:14:22;4.10;;;1.50;;
4686;SDS011;2357;47.316;-1.348;2023-05-19T12:16:49;2.07;;;1.67;;
4686;SDS011;2357;47.316;-1.348;2023-05-19T12:19:15;8.30;;;2.07;;
4686;SDS011;2357;47.316;-1.348;2023-05-19T12:21:41;3.93;;;2.17;;
4686;SDS011;2357;47.316;-1.348;2023-05-19T12:24:07;2.70;;;1.63;;
4686;SDS011;2357;47.316;-1.348;2023-05-19T12:26:33;2.00;;;1.33;;
4686;SDS011;2357;47.316;-1.348;2023-05-19T12:29:00;3.90;;;1.87;;
4686;SDS011;2357;47.316;-1.348;2023-05-19T12:31:25;4.80;;;2.03;;
4686;SDS011;2357;47.316;-1.348;2023-05-19T12:33:51;1.73;;;1.63;;
4686;SDS011;2357;47.316;-1.348;2023-05-19T12:36:17;3.37;;;2.27;;
4686;SDS011;2357;47.316;-1.348;2023-05-19T12:38:43;3.00;;;1.47;;
4686;SDS011;2357;47.316;-1.348;2023-05-19T12:41:11;7.93;;;1.90;;
4686;SDS011;2357;47.316;-1.348;2023-05-19T12:43:40;1.63;;;1.43;;
4686;SDS011;2357;47.316;-1.348;2023-05-19T12:46:12;1.53;;;1.33;;
4686;SDS011;2357;47.316;-1.348;2023-05-19T12:48:40;3.10;;;1.73;;
4686;SDS011;2357;47.316;-1.348;2023-05-19T12:51:09;3.20;;;2.20;;
4686;SDS011;2357;47.316;-1.348;2023-05-19T12:53:41;2.83;;;1.80;;
4686;SDS011;2357;47.316;-1.348;2023-05-19T12:56:11;6.50;;;2.00;;
4686;SDS011;2357;47.316;-1.348;2023-05-19T12:58:38;4.33;;;2.50;;
4686;SDS011;2357;47.316;-1.348;2023-05-19T13:01:05;5.87;;;2.63;;
4686;SDS011;2357;47.316;-1.348;2023-05-19T13:03:33;6.30;;;1.90;;
4686;SDS011;2357;47.316;-1.348;2023-05-19T13:06:04;9.93;;;5.40;;
4686;SDS011;2357;47.316;-1.348;2023-05-19T13:08:29;3.00;;;2.07;;
4686;SDS011;2357;47.316;-1.348;2023-05-19T13:10:55;4.53;;;2.17;;
4686;SDS011;2357;47.316;-1.348;2023-05-19T13:13:20;5.20;;;3.00;;
4686;SDS011;2357;47.316;-1.348;2023-05-19T13:15:46;2.87;;;2.03;;
4686;SDS011;2357;47.316;-1.348;2023-05-19T13:18:15;6.70;;;3.00;;
4686;SDS011;2357;47.316;-1.348;2023-05-19T13:20:42;5.67;;;2.13;;
4686;SDS011;2357;47.316;-1.348;2023-05-19T13:23:09;5.10;;;2.10;;
4686;SDS011;2357;47.316;-1.348;2023-05-19T13:25:35;6.90;;;2.73;;
4686;SDS011;2357;47.316;-1.348;2023-05-19T13:28:01;3.40;;;1.80;;
4686;SDS011;2357;47.316;-1.348;2023-05-19T13:30:30;3.07;;;2.17;;
4686;SDS011;2357;47.316;-1.348;2023-05-19T13:32:56;5.50;;;2.80;;
4686;SDS011;2357;47.316;-1.348;2023-05-19T13:35:22;3.33;;;1.60;;
4686;SDS011;2357;47.316;-1.348;2023-05-19T13:37:47;4.00;;;1.70;;
4686;SDS011;2357;47.316;-1.348;2023-05-19T13:40:13;4.80;;;1.67;;
4686;SDS011;2357;47.316;-1.348;2023-05-19T13:42:40;3.23;;;1.60;;
4686;SDS011;2357;47.316;-1.348;2023-05-19T13:45:06;2.20;;;2.00;;
4686;SDS011;2357;47.316;-1.348;2023-05-19T13:47:33;7.10;;;1.90;;
4686;SDS011;2357;47.316;-1.348;2023-05-19T13:49:58;1.63;;;1.53;;
4686;SDS011;2357;47.316;-1.348;2023-05-19T13:52:24;5.60;;;1.87;;
4686;SDS011;2357;47.316;-1.348;2023-05-19T13:54:50;8.57;;;3.83;;
4686;SDS011;2357;47.316;-1.348;2023-05-19T13:57:18;10.30;;;4.13;;
4686;SDS011;2357;47.316;-1.348;2023-05-19T13:59:44;3.63;;;1.70;;
4686;SDS011;2357;47.316;-1.348;2023-05-19T14:02:09;7.33;;;3.20;;
4686;SDS011;2357;47.316;-1.348;2023-05-19T14:04:35;3.40;;;2.37;;
4686;SDS011;2357;47.316;-1.348;2023-05-19T14:07:02;9.03;;;1.60;;
4686;SDS011;2357;47.316;-1.348;2023-05-19T14:09:29;2.70;;;2.30;;
4686;SDS011;2357;47.316;-1.348;2023-05-19T14:11:55;1.93;;;1.53;;
4686;SDS011;2357;47.316;-1.348;2023-05-19T14:14:20;2.00;;;1.80;;
4686;SDS011;2357;47.316;-1.348;2023-05-19T14:16:46;1.90;;;1.80;;
4686;SDS011;2357;47.316;-1.348;2023-05-19T14:19:12;2.10;;;1.80;;
4686;SDS011;2357;47.316;-1.348;2023-05-19T14:21:38;3.10;;;1.57;;
4686;SDS011;2357;47.316;-1.348;2023-05-19T14:24:04;2.80;;;1.57;;
4686;SDS011;2357;47.316;-1.348;2023-05-19T14:26:30;1.67;;;1.40;;
4686;SDS011;2357;47.316;-1.348;2023-05-19T14:28:55;2.67;;;1.70;;
4686;SDS011;2357;47.316;-1.348;2023-05-19T14:31:21;2.07;;;1.87;;
4686;SDS011;2357;47.316;-1.348;2023-05-19T14:33:47;1.93;;;1.53;;
4686;SDS011;2357;47.316;-1.348;2023-05-19T14:36:13;2.67;;;1.83;;
4686;SDS011;2357;47.316;-1.348;2023-05-19T14:38:38;1.57;;;1.47;;
4686;SDS011;2357;47.316;-1.348;2023-05-19T14:41:04;2.40;;;1.60;;
4686;SDS011;2357;47.316;-1.348;2023-05-19T14:43:31;5.13;;;1.97;;
4686;SDS011;2357;47.316;-1.348;2023-05-19T14:45:57;2.10;;;1.70;;
4686;SDS011;2357;47.316;-1.348;2023-05-19T14:48:22;5.10;;;1.80;;
4686;SDS011;2357;47.316;-1.348;2023-05-19T14:50:48;2.30;;;1.40;;
4686;SDS011;2357;47.316;-1.348;2023-05-19T14:53:14;7.30;;;2.00;;
4686;SDS011;2357;47.316;-1.348;2023-05-19T14:55:40;4.63;;;2.00;;
4686;SDS011;2357;47.316;-1.348;2023-05-19T14:58:06;2.87;;;1.63;;
4686;SDS011;2357;47.316;-1.348;2023-05-19T15:00:31;1.60;;;1.20;;
4686;SDS011;2357;47.316;-1.348;2023-05-19T15:02:57;1.47;;;1.37;;
4686;SDS011;2357;47.316;-1.348;2023-05-19T15:05:22;1.80;;;1.70;;
4686;SDS011;2357;47.316;-1.348;2023-05-19T15:07:49;3.90;;;1.80;;
4686;SDS011;2357;47.316;-1.348;2023-05-19T15:10:15;4.10;;;1.47;;
4686;SDS011;2357;47.316;-1.348;2023-05-19T15:12:41;2.63;;;1.60;;
4686;SDS011;2357;47.316;-1.348;2023-05-19T15:15:07;3.63;;;1.50;;
4686;SDS011;2357;47.316;-1.348;2023-05-19T15:17:33;2.80;;;1.80;;
4686;SDS011;2357;47.316;-1.348;2023-05-19T15:19:59;2.33;;;1.43;;
4686;SDS011;2357;47.316;-1.348;2023-05-19T15:22:24;9.77;;;1.90;;
4686;SDS011;2357;47.316;-1.348;2023-05-19T15:24:50;4.60;;;2.00;;
4686;SDS011;2357;47.316;-1.348;2023-05-19T15:27:16;1.60;;;1.50;;
4686;SDS011;2357;47.316;-1.348;2023-05-19T15:29:41;2.47;;;1.87;;
4686;SDS011;2357;47.316;-1.348;2023-05-19T15:32:07;14.03;;;1.67;;
4686;SDS011;2357;47.316;-1.348;2023-05-19T15:34:33;2.47;;;2.07;;
4686;SDS011;2357;47.316;-1.348;2023-05-19T15:36:58;1.80;;;1.53;;
4686;SDS011;2357;47.316;-1.348;2023-05-19T15:39:24;1.73;;;1.40;;
4686;SDS011;2357;47.316;-1.348;2023-05-19T15:41:50;7.80;;;1.90;;